sensor_id;sensor_type;location;lat;lon;timestamp;temperature;humidity
27413;DHT22;14871;52.702;5.230;2023-06-04T00:00:11;17.60;92.40
27413;DHT22;14871;52.702;5.230;2023-06-04T00:02:37;17.70;92.50
27413;DHT22;14871;52.702;5.230;2023-06-04T00:05:03;17.70;92.50
27413;DHT22;14871;52.702;5.230;2023-06-04T00:07:28;17.60;92.60
27413;DHT22;14871;52.702;5.230;2023-06-04T00:09:55;17.60;92.80
27413;DHT22;14871;52.702;5.230;2023-06-04T00:12:21;17.60;92.60
27413;DHT22;14871;52.702;5.230;2023-06-04T00:14:47;17.60;92.70
27413;DHT22;14871;52.702;5.230;2023-06-04T00:17:12;17.60;92.80
27413;DHT22;14871;52.702;5.230;2023-06-04T00:19:39;17.70;92.80
27413;DHT22;14871;52.702;5.230;2023-06-04T00:22:06;17.60;93.00
27413;DHT22;14871;52.702;5.230;2023-06-04T00:24:33;17.50;93.10
27413;DHT22;14871;52.702;5.230;2023-06-04T00:26:59;17.60;93.30
27413;DHT22;14871;52.702;5.230;2023-06-04T00:29:25;17.50;93.30
27413;DHT22;14871;52.702;5.230;2023-06-04T00:31:51;17.50;93.50
27413;DHT22;14871;52.702;5.230;2023-06-04T00:34:17;17.40;93.70
27413;DHT22;14871;52.702;5.230;2023-06-04T00:36:44;17.40;93.80
27413;DHT22;14871;52.702;5.230;2023-06-04T00:39:09;17.40;94.40
27413;DHT22;14871;52.702;5.230;2023-06-04T00:41:36;17.40;94.10
27413;DHT22;14871;52.702;5.230;2023-06-04T00:44:01;17.40;94.10
27413;DHT22;14871;52.702;5.230;2023-06-04T00:46:28;17.30;94.30
27413;DHT22;14871;52.702;5.230;2023-06-04T00:48:55;17.30;94.60
27413;DHT22;14871;52.702;5.230;2023-06-04T00:51:21;17.30;94.60
27413;DHT22;14871;52.702;5.230;2023-06-04T00:53:49;17.30;94.70
27413;DHT22;14871;52.702;5.230;2023-06-04T00:56:15;17.20;95.40
27413;DHT22;14871;52.702;5.230;2023-06-04T00:58:41;17.20;95.00
27413;DHT22;14871;52.702;5.230;2023-06-04T01:01:15;17.20;95.20
27413;DHT22;14871;52.702;5.230;2023-06-04T01:03:47;17.20;95.20
27413;DHT22;14871;52.702;5.230;2023-06-04T01:06:35;17.10;95.30
27413;DHT22;14871;52.702;5.230;2023-06-04T01:09:03;17.20;95.40
27413;DHT22;14871;52.702;5.230;2023-06-04T01:11:36;17.10;95.50
27413;DHT22;14871;52.702;5.230;2023-06-04T01:14:04;17.10;95.70
27413;DHT22;14871;52.702;5.230;2023-06-04T01:16:36;17.00;95.70
27413;DHT22;14871;52.702;5.230;2023-06-04T01:19:26;17.00;96.10
27413;DHT22;14871;52.702;5.230;2023-06-04T01:21:59;17.00;96.10
27413;DHT22;14871;52.702;5.230;2023-06-04T01:24:28;17.00;96.30
27413;DHT22;14871;52.702;5.230;2023-06-04T01:26:57;16.90;96.70
27413;DHT22;14871;52.702;5.230;2023-06-04T01:29:23;16.90;96.70
27413;DHT22;14871;52.702;5.230;2023-06-04T01:31:51;16.90;96.80
27413;DHT22;14871;52.702;5.230;2023-06-04T01:34:17;16.90;96.90
27413;DHT22;14871;52.702;5.230;2023-06-04T01:36:43;16.80;97.00
27413;DHT22;14871;52.702;5.230;2023-06-04T01:39:09;16.80;97.30
27413;DHT22;14871;52.702;5.230;2023-06-04T01:41:35;16.80;97.40
27413;DHT22;14871;52.702;5.230;2023-06-04T01:44:01;16.80;97.50
27413;DHT22;14871;52.702;5.230;2023-06-04T01:46:27;16.80;97.70
27413;DHT22;14871;52.702;5.230;2023-06-04T01:48:53;16.80;97.70
27413;DHT22;14871;52.702;5.230;2023-06-04T01:51:19;16.80;97.80
27413;DHT22;14871;52.702;5.230;2023-06-04T01:53:45;16.70;98.10
27413;DHT22;14871;52.702;5.230;2023-06-04T01:56:11;16.70;98.20
27413;DHT22;14871;52.702;5.230;2023-06-04T01:58:38;16.60;98.50
27413;DHT22;14871;52.702;5.230;2023-06-04T02:01:04;16.60;98.60
27413;DHT22;14871;52.702;5.230;2023-06-04T02:03:30;16.60;98.70
27413;DHT22;14871;52.702;5.230;2023-06-04T02:06:04;16.60;98.80
27413;DHT22;14871;52.702;5.230;2023-06-04T02:08:33;16.60;98.90
27413;DHT22;14871;52.702;5.230;2023-06-04T02:10:59;16.60;99.20
27413;DHT22;14871;52.702;5.230;2023-06-04T02:13:25;16.50;99.40
27413;DHT22;14871;52.702;5.230;2023-06-04T02:15:51;16.50;99.70
27413;DHT22;14871;52.702;5.230;2023-06-04T02:18:20;16.50;99.80
27413;DHT22;14871;52.702;5.230;2023-06-04T02:20:49;16.50;99.90
27413;DHT22;14871;52.702;5.230;2023-06-04T02:23:16;16.40;99.90
27413;DHT22;14871;52.702;5.230;2023-06-04T02:25:43;16.40;99.90
27413;DHT22;14871;52.702;5.230;2023-06-04T02:28:13;16.40;99.90
27413;DHT22;14871;52.702;5.230;2023-06-04T02:30:39;16.40;99.90
27413;DHT22;14871;52.702;5.230;2023-06-04T02:33:05;16.40;99.90
27413;DHT22;14871;52.702;5.230;2023-06-04T02:35:32;16.40;99.90
27413;DHT22;14871;52.702;5.230;2023-06-04T02:37:58;16.40;99.90
27413;DHT22;14871;52.702;5.230;2023-06-04T02:40:27;16.40;99.90
27413;DHT22;14871;52.702;5.230;2023-06-04T02:42:53;16.30;99.90
27413;DHT22;14871;52.702;5.230;2023-06-04T02:45:20;16.30;99.90
27413;DHT22;14871;52.702;5.230;2023-06-04T02:47:46;16.40;99.90
27413;DHT22;14871;52.702;5.230;2023-06-04T02:50:12;16.30;99.90
27413;DHT22;14871;52.702;5.230;2023-06-04T02:52:38;16.30;99.90
27413;DHT22;14871;52.702;5.230;2023-06-04T02:55:06;16.20;99.90
27413;DHT22;14871;52.702;5.230;2023-06-04T02:57:33;16.20;99.90
27413;DHT22;14871;52.702;5.230;2023-06-04T03:00:00;16.20;99.90
27413;DHT22;14871;52.702;5.230;2023-06-04T03:02:25;16.20;99.90
27413;DHT22;14871;52.702;5.230;2023-06-04T03:04:52;16.20;99.90
27413;DHT22;14871;52.702;5.230;2023-06-04T03:07:20;16.10;99.90
27413;DHT22;14871;52.702;5.230;2023-06-04T03:09:48;16.20;99.90
27413;DHT22;14871;52.702;5.230;2023-06-04T03:12:14;16.20;99.90
27413;DHT22;14871;52.702;5.230;2023-06-04T03:14:41;16.20;99.90
27413;DHT22;14871;52.702;5.230;2023-06-04T03:17:07;16.10;99.90
27413;DHT22;14871;52.702;5.230;2023-06-04T03:19:40;16.10;99.90
27413;DHT22;14871;52.702;5.230;2023-06-04T03:22:07;16.10;99.90
27413;DHT22;14871;52.702;5.230;2023-06-04T03:24:36;16.10;99.90
27413;DHT22;14871;52.702;5.230;2023-06-04T03:27:03;16.10;99.90
27413;DHT22;14871;52.702;5.230;2023-06-04T03:29:30;16.10;99.90
27413;DHT22;14871;52.702;5.230;2023-06-04T03:31:57;16.10;99.90
27413;DHT22;14871;52.702;5.230;2023-06-04T03:34:23;16.00;99.90
27413;DHT22;14871;52.702;5.230;2023-06-04T03:36:55;16.00;99.90
27413;DHT22;14871;52.702;5.230;2023-06-04T03:39:21;16.10;99.90
27413;DHT22;14871;52.702;5.230;2023-06-04T03:41:48;16.00;99.90
27413;DHT22;14871;52.702;5.230;2023-06-04T03:44:15;16.00;99.90
27413;DHT22;14871;52.702;5.230;2023-06-04T03:46:42;16.00;99.90
27413;DHT22;14871;52.702;5.230;2023-06-04T03:49:12;15.90;99.90
27413;DHT22;14871;52.702;5.230;2023-06-04T03:51:39;16.00;99.90
27413;DHT22;14871;52.702;5.230;2023-06-04T03:54:05;16.00;99.90
27413;DHT22;14871;52.702;5.230;2023-06-04T03:56:31;16.00;99.90
27413;DHT22;14871;52.702;5.230;2023-06-04T03:58:58;16.00;99.90
27413;DHT22;14871;52.702;5.230;2023-06-04T04:01:24;15.90;99.90
27413;DHT22;14871;52.702;5.230;2023-06-04T04:03:50;16.00;99.90
27413;DHT22;14871;52.702;5.230;2023-06-04T04:06:17;15.90;99.90
27413;DHT22;14871;52.702;5.230;2023-06-04T04:08:44;16.00;99.90
27413;DHT22;14871;52.702;5.230;2023-06-04T04:11:16;16.00;99.90
27413;DHT22;14871;52.702;5.230;2023-06-04T04:13:45;16.00;99.90
27413;DHT22;14871;52.702;5.230;2023-06-04T04:16:11;15.90;99.90
27413;DHT22;14871;52.702;5.230;2023-06-04T04:18:37;15.90;99.90
27413;DHT22;14871;52.702;5.230;2023-06-04T04:21:04;16.00;99.90
27413;DHT22;14871;52.702;5.230;2023-06-04T04:23:31;16.00;99.90
27413;DHT22;14871;52.702;5.230;2023-06-04T04:26:00;15.90;99.90
27413;DHT22;14871;52.702;5.230;2023-06-04T04:28:28;16.00;99.90
27413;DHT22;14871;52.702;5.230;2023-06-04T04:30:57;16.00;99.90
27413;DHT22;14871;52.702;5.230;2023-06-04T04:33:24;16.00;99.90
27413;DHT22;14871;52.702;5.230;2023-06-04T04:35:51;16.00;99.90
27413;DHT22;14871;52.702;5.230;2023-06-04T04:38:20;16.00;99.90
27413;DHT22;14871;52.702;5.230;2023-06-04T04:40:49;16.00;99.90
27413;DHT22;14871;52.702;5.230;2023-06-04T04:43:27;16.00;99.90
27413;DHT22;14871;52.702;5.230;2023-06-04T04:45:53;16.10;99.90
27413;DHT22;14871;52.702;5.230;2023-06-04T04:48:19;16.00;99.90
27413;DHT22;14871;52.702;5.230;2023-06-04T04:50:44;16.10;99.90
27413;DHT22;14871;52.702;5.230;2023-06-04T04:53:10;16.10;99.90
27413;DHT22;14871;52.702;5.230;2023-06-04T04:55:36;16.10;99.90
27413;DHT22;14871;52.702;5.230;2023-06-04T04:58:02;16.10;99.90
27413;DHT22;14871;52.702;5.230;2023-06-04T05:00:28;16.20;99.90
27413;DHT22;14871;52.702;5.230;2023-06-04T05:02:54;16.20;99.90
27413;DHT22;14871;52.702;5.230;2023-06-04T05:05:20;16.20;99.90
27413;DHT22;14871;52.702;5.230;2023-06-04T05:07:46;16.30;99.90
27413;DHT22;14871;52.702;5.230;2023-06-04T05:10:12;16.30;99.90
27413;DHT22;14871;52.702;5.230;2023-06-04T05:12:38;16.30;99.90
27413;DHT22;14871;52.702;5.230;2023-06-04T05:15:07;16.30;99.90
27413;DHT22;14871;52.702;5.230;2023-06-04T05:17:32;16.30;99.90
27413;DHT22;14871;52.702;5.230;2023-06-04T05:19:58;16.40;99.90
27413;DHT22;14871;52.702;5.230;2023-06-04T05:22:37;16.30;99.90
27413;DHT22;14871;52.702;5.230;2023-06-04T05:25:03;16.40;99.90
27413;DHT22;14871;52.702;5.230;2023-06-04T05:27:29;16.40;99.90
27413;DHT22;14871;52.702;5.230;2023-06-04T05:29:57;16.30;99.90
27413;DHT22;14871;52.702;5.230;2023-06-04T05:32:23;16.40;99.90
27413;DHT22;14871;52.702;5.230;2023-06-04T05:34:49;16.40;99.90
27413;DHT22;14871;52.702;5.230;2023-06-04T05:37:15;16.50;99.90
27413;DHT22;14871;52.702;5.230;2023-06-04T05:39:43;16.50;99.90
27413;DHT22;14871;52.702;5.230;2023-06-04T05:42:09;16.60;99.90
27413;DHT22;14871;52.702;5.230;2023-06-04T05:44:35;16.50;99.90
27413;DHT22;14871;52.702;5.230;2023-06-04T05:47:00;16.60;99.90
27413;DHT22;14871;52.702;5.230;2023-06-04T05:49:27;16.60;99.90
27413;DHT22;14871;52.702;5.230;2023-06-04T05:51:52;16.70;99.90
27413;DHT22;14871;52.702;5.230;2023-06-04T05:54:18;16.70;99.90
27413;DHT22;14871;52.702;5.230;2023-06-04T05:57:05;16.80;99.90
27413;DHT22;14871;52.702;5.230;2023-06-04T05:59:34;16.90;99.90
27413;DHT22;14871;52.702;5.230;2023-06-04T06:01:59;16.90;99.90
27413;DHT22;14871;52.702;5.230;2023-06-04T06:04:25;16.90;99.90
27413;DHT22;14871;52.702;5.230;2023-06-04T06:06:51;17.00;99.90
27413;DHT22;14871;52.702;5.230;2023-06-04T06:09:17;17.20;99.90
27413;DHT22;14871;52.702;5.230;2023-06-04T06:11:43;17.20;99.90
27413;DHT22;14871;52.702;5.230;2023-06-04T06:14:09;17.20;99.90
27413;DHT22;14871;52.702;5.230;2023-06-04T06:16:35;17.20;99.90
27413;DHT22;14871;52.702;5.230;2023-06-04T06:19:02;17.30;99.90
27413;DHT22;14871;52.702;5.230;2023-06-04T06:21:28;17.40;99.90
27413;DHT22;14871;52.702;5.230;2023-06-04T06:23:54;17.40;99.90
27413;DHT22;14871;52.702;5.230;2023-06-04T06:26:20;17.50;99.90
27413;DHT22;14871;52.702;5.230;2023-06-04T06:28:47;17.60;99.90
27413;DHT22;14871;52.702;5.230;2023-06-04T06:31:13;17.60;99.90
27413;DHT22;14871;52.702;5.230;2023-06-04T06:33:39;17.60;99.90
27413;DHT22;14871;52.702;5.230;2023-06-04T06:36:11;17.70;99.90
27413;DHT22;14871;52.702;5.230;2023-06-04T06:38:37;17.80;99.90
27413;DHT22;14871;52.702;5.230;2023-06-04T06:41:04;17.90;99.90
27413;DHT22;14871;52.702;5.230;2023-06-04T06:43:30;18.00;99.90
27413;DHT22;14871;52.702;5.230;2023-06-04T06:45:57;18.00;99.90
27413;DHT22;14871;52.702;5.230;2023-06-04T06:48:23;18.00;99.90
27413;DHT22;14871;52.702;5.230;2023-06-04T06:50:49;18.10;99.90
27413;DHT22;14871;52.702;5.230;2023-06-04T06:53:14;18.10;99.90
27413;DHT22;14871;52.702;5.230;2023-06-04T06:55:40;18.20;99.90
27413;DHT22;14871;52.702;5.230;2023-06-04T06:58:06;18.30;99.90
27413;DHT22;14871;52.702;5.230;2023-06-04T07:00:32;18.40;99.90
27413;DHT22;14871;52.702;5.230;2023-06-04T07:02:58;18.50;99.90
27413;DHT22;14871;52.702;5.230;2023-06-04T07:05:24;18.60;99.90
27413;DHT22;14871;52.702;5.230;2023-06-04T07:07:50;18.70;99.90
27413;DHT22;14871;52.702;5.230;2023-06-04T07:10:16;18.80;99.90
27413;DHT22;14871;52.702;5.230;2023-06-04T07:12:41;18.90;99.90
27413;DHT22;14871;52.702;5.230;2023-06-04T07:15:08;19.00;99.90
27413;DHT22;14871;52.702;5.230;2023-06-04T07:17:36;19.20;99.90
27413;DHT22;14871;52.702;5.230;2023-06-04T07:20:02;19.30;99.90
27413;DHT22;14871;52.702;5.230;2023-06-04T07:22:32;19.40;99.90
27413;DHT22;14871;52.702;5.230;2023-06-04T07:24:58;19.50;99.90
27413;DHT22;14871;52.702;5.230;2023-06-04T07:27:23;19.60;99.90
27413;DHT22;14871;52.702;5.230;2023-06-04T07:29:49;19.60;99.90
27413;DHT22;14871;52.702;5.230;2023-06-04T07:32:15;19.70;99.90
27413;DHT22;14871;52.702;5.230;2023-06-04T07:34:40;19.70;99.90
27413;DHT22;14871;52.702;5.230;2023-06-04T07:37:06;19.80;99.90
27413;DHT22;14871;52.702;5.230;2023-06-04T07:39:33;19.80;99.90
27413;DHT22;14871;52.702;5.230;2023-06-04T07:41:59;19.90;99.90
27413;DHT22;14871;52.702;5.230;2023-06-04T07:44:24;20.10;99.90
27413;DHT22;14871;52.702;5.230;2023-06-04T07:46:50;20.20;99.90
27413;DHT22;14871;52.702;5.230;2023-06-04T07:49:16;20.30;99.90
27413;DHT22;14871;52.702;5.230;2023-06-04T07:51:42;20.30;99.90
27413;DHT22;14871;52.702;5.230;2023-06-04T07:54:07;20.40;99.90
27413;DHT22;14871;52.702;5.230;2023-06-04T07:56:33;20.60;99.90
27413;DHT22;14871;52.702;5.230;2023-06-04T07:58:59;20.60;99.90
27413;DHT22;14871;52.702;5.230;2023-06-04T08:01:25;20.70;99.90
27413;DHT22;14871;52.702;5.230;2023-06-04T08:03:50;20.80;99.90
27413;DHT22;14871;52.702;5.230;2023-06-04T08:06:16;21.00;99.60
27413;DHT22;14871;52.702;5.230;2023-06-04T08:08:43;21.00;99.60
27413;DHT22;14871;52.702;5.230;2023-06-04T08:11:11;21.10;99.60
27413;DHT22;14871;52.702;5.230;2023-06-04T08:13:37;21.30;99.00
27413;DHT22;14871;52.702;5.230;2023-06-04T08:16:03;21.40;98.40
27413;DHT22;14871;52.702;5.230;2023-06-04T08:18:28;21.50;98.50
27413;DHT22;14871;52.702;5.230;2023-06-04T08:20:54;21.70;98.10
27413;DHT22;14871;52.702;5.230;2023-06-04T08:23:20;21.80;98.00
27413;DHT22;14871;52.702;5.230;2023-06-04T08:25:46;21.90;97.80
27413;DHT22;14871;52.702;5.230;2023-06-04T08:28:14;22.00;97.00
27413;DHT22;14871;52.702;5.230;2023-06-04T08:30:41;22.00;96.70
27413;DHT22;14871;52.702;5.230;2023-06-04T08:33:07;22.00;96.80
27413;DHT22;14871;52.702;5.230;2023-06-04T08:35:33;21.90;96.70
27413;DHT22;14871;52.702;5.230;2023-06-04T08:37:58;21.90;96.80
27413;DHT22;14871;52.702;5.230;2023-06-04T08:40:24;21.80;96.60
27413;DHT22;14871;52.702;5.230;2023-06-04T08:42:51;21.90;96.60
27413;DHT22;14871;52.702;5.230;2023-06-04T08:45:20;21.90;96.20
27413;DHT22;14871;52.702;5.230;2023-06-04T08:47:50;21.80;96.70
27413;DHT22;14871;52.702;5.230;2023-06-04T08:50:24;21.90;96.50
27413;DHT22;14871;52.702;5.230;2023-06-04T08:52:55;22.00;95.80
27413;DHT22;14871;52.702;5.230;2023-06-04T08:55:21;22.10;95.90
27413;DHT22;14871;52.702;5.230;2023-06-04T08:57:49;22.30;95.50
27413;DHT22;14871;52.702;5.230;2023-06-04T09:00:18;22.30;94.70
27413;DHT22;14871;52.702;5.230;2023-06-04T09:02:46;22.50;94.80
27413;DHT22;14871;52.702;5.230;2023-06-04T09:05:19;22.50;95.10
27413;DHT22;14871;52.702;5.230;2023-06-04T09:07:46;22.70;95.50
27413;DHT22;14871;52.702;5.230;2023-06-04T09:10:15;22.70;95.50
27413;DHT22;14871;52.702;5.230;2023-06-04T09:12:45;22.70;95.20
27413;DHT22;14871;52.702;5.230;2023-06-04T09:15:12;23.00;94.50
27413;DHT22;14871;52.702;5.230;2023-06-04T09:17:37;23.00;93.80
27413;DHT22;14871;52.702;5.230;2023-06-04T09:20:03;23.10;93.90
27413;DHT22;14871;52.702;5.230;2023-06-04T09:22:35;23.10;93.80
27413;DHT22;14871;52.702;5.230;2023-06-04T09:25:04;23.20;93.60
27413;DHT22;14871;52.702;5.230;2023-06-04T09:27:38;23.40;93.60
27413;DHT22;14871;52.702;5.230;2023-06-04T09:30:06;23.30;93.00
27413;DHT22;14871;52.702;5.230;2023-06-04T09:32:33;23.40;93.20
27413;DHT22;14871;52.702;5.230;2023-06-04T09:37:34;23.80;93.30
27413;DHT22;14871;52.702;5.230;2023-06-04T09:40:00;23.60;92.50
27413;DHT22;14871;52.702;5.230;2023-06-04T09:42:26;23.80;92.30
27413;DHT22;14871;52.702;5.230;2023-06-04T09:44:52;23.80;92.30
27413;DHT22;14871;52.702;5.230;2023-06-04T09:47:18;23.70;91.90
27413;DHT22;14871;52.702;5.230;2023-06-04T09:49:45;23.80;91.90
27413;DHT22;14871;52.702;5.230;2023-06-04T09:52:11;24.10;91.30
27413;DHT22;14871;52.702;5.230;2023-06-04T09:54:41;23.90;91.40
27413;DHT22;14871;52.702;5.230;2023-06-04T09:57:20;24.00;91.40
27413;DHT22;14871;52.702;5.230;2023-06-04T09:59:49;24.10;91.50
27413;DHT22;14871;52.702;5.230;2023-06-04T10:02:22;24.20;91.20
27413;DHT22;14871;52.702;5.230;2023-06-04T10:04:55;24.10;90.40
27413;DHT22;14871;52.702;5.230;2023-06-04T10:07:25;24.30;90.20
27413;DHT22;14871;52.702;5.230;2023-06-04T10:09:52;24.40;90.40
27413;DHT22;14871;52.702;5.230;2023-06-04T10:12:25;24.50;90.00
27413;DHT22;14871;52.702;5.230;2023-06-04T10:14:56;24.50;89.20
27413;DHT22;14871;52.702;5.230;2023-06-04T10:17:23;24.60;89.00
27413;DHT22;14871;52.702;5.230;2023-06-04T10:19:52;24.70;88.00
27413;DHT22;14871;52.702;5.230;2023-06-04T10:22:21;24.70;88.30
27413;DHT22;14871;52.702;5.230;2023-06-04T10:24:47;24.50;89.00
27413;DHT22;14871;52.702;5.230;2023-06-04T10:27:13;24.80;88.70
27413;DHT22;14871;52.702;5.230;2023-06-04T10:29:39;24.90;89.20
27413;DHT22;14871;52.702;5.230;2023-06-04T10:32:05;25.00;87.20
27413;DHT22;14871;52.702;5.230;2023-06-04T10:34:31;25.00;85.30
27413;DHT22;14871;52.702;5.230;2023-06-04T10:36:58;24.90;85.70
27413;DHT22;14871;52.702;5.230;2023-06-04T10:39:31;25.10;85.30
27413;DHT22;14871;52.702;5.230;2023-06-04T10:42:05;25.10;85.00
27413;DHT22;14871;52.702;5.230;2023-06-04T10:44:31;25.20;85.40
27413;DHT22;14871;52.702;5.230;2023-06-04T10:46:58;25.40;85.40
27413;DHT22;14871;52.702;5.230;2023-06-04T10:49:30;25.40;83.40
27413;DHT22;14871;52.702;5.230;2023-06-04T10:51:57;25.60;82.30
27413;DHT22;14871;52.702;5.230;2023-06-04T10:54:28;25.60;82.60
27413;DHT22;14871;52.702;5.230;2023-06-04T10:56:54;25.60;83.20
27413;DHT22;14871;52.702;5.230;2023-06-04T10:59:20;25.60;81.70
27413;DHT22;14871;52.702;5.230;2023-06-04T11:01:46;25.60;83.70
27413;DHT22;14871;52.702;5.230;2023-06-04T11:04:23;25.60;84.50
27413;DHT22;14871;52.702;5.230;2023-06-04T11:07:03;25.70;84.70
27413;DHT22;14871;52.702;5.230;2023-06-04T11:09:30;25.90;85.20
27413;DHT22;14871;52.702;5.230;2023-06-04T11:11:58;25.90;84.60
27413;DHT22;14871;52.702;5.230;2023-06-04T11:14:24;25.80;84.40
27413;DHT22;14871;52.702;5.230;2023-06-04T11:16:49;25.80;84.60
27413;DHT22;14871;52.702;5.230;2023-06-04T11:19:15;25.80;84.50
27413;DHT22;14871;52.702;5.230;2023-06-04T11:21:41;25.90;84.30
27413;DHT22;14871;52.702;5.230;2023-06-04T11:24:07;26.00;84.10
27413;DHT22;14871;52.702;5.230;2023-06-04T11:26:34;26.20;84.20
27413;DHT22;14871;52.702;5.230;2023-06-04T11:29:01;26.00;83.10
27413;DHT22;14871;52.702;5.230;2023-06-04T11:31:27;26.10;83.10
27413;DHT22;14871;52.702;5.230;2023-06-04T11:33:53;26.00;82.30
27413;DHT22;14871;52.702;5.230;2023-06-04T11:36:26;26.20;82.40
27413;DHT22;14871;52.702;5.230;2023-06-04T11:39:00;26.20;82.20
27413;DHT22;14871;52.702;5.230;2023-06-04T11:41:30;26.30;80.80
27413;DHT22;14871;52.702;5.230;2023-06-04T11:43:57;26.40;80.50
27413;DHT22;14871;52.702;5.230;2023-06-04T11:46:23;26.40;80.40
27413;DHT22;14871;52.702;5.230;2023-06-04T11:48:53;26.60;80.40
27413;DHT22;14871;52.702;5.230;2023-06-04T11:51:22;26.60;80.40
27413;DHT22;14871;52.702;5.230;2023-06-04T11:53:48;26.70;80.00
27413;DHT22;14871;52.702;5.230;2023-06-04T11:56:15;26.80;80.40
27413;DHT22;14871;52.702;5.230;2023-06-04T11:58:42;27.00;80.50
27413;DHT22;14871;52.702;5.230;2023-06-04T12:01:08;27.10;80.60
27413;DHT22;14871;52.702;5.230;2023-06-04T12:03:38;27.20;79.40
27413;DHT22;14871;52.702;5.230;2023-06-04T12:08:51;27.30;77.80
27413;DHT22;14871;52.702;5.230;2023-06-04T12:11:35;27.40;78.30
27413;DHT22;14871;52.702;5.230;2023-06-04T12:14:05;27.30;78.10
27413;DHT22;14871;52.702;5.230;2023-06-04T12:16:32;27.40;79.30
27413;DHT22;14871;52.702;5.230;2023-06-04T12:19:13;27.30;78.30
27413;DHT22;14871;52.702;5.230;2023-06-04T12:21:39;27.50;78.10
27413;DHT22;14871;52.702;5.230;2023-06-04T12:24:12;27.50;75.20
27413;DHT22;14871;52.702;5.230;2023-06-04T12:26:41;27.50;76.80
27413;DHT22;14871;52.702;5.230;2023-06-04T12:29:10;27.60;76.70
27413;DHT22;14871;52.702;5.230;2023-06-04T12:31:37;27.60;76.20
27413;DHT22;14871;52.702;5.230;2023-06-04T12:34:02;27.40;76.20
27413;DHT22;14871;52.702;5.230;2023-06-04T12:36:28;27.30;75.60
27413;DHT22;14871;52.702;5.230;2023-06-04T12:38:58;27.20;76.50
27413;DHT22;14871;52.702;5.230;2023-06-04T12:41:26;27.30;76.40
27413;DHT22;14871;52.702;5.230;2023-06-04T12:43:52;27.10;75.90
27413;DHT22;14871;52.702;5.230;2023-06-04T12:46:17;27.10;75.80
27413;DHT22;14871;52.702;5.230;2023-06-04T12:48:43;27.20;76.10
27413;DHT22;14871;52.702;5.230;2023-06-04T12:51:09;27.30;76.10
27413;DHT22;14871;52.702;5.230;2023-06-04T12:53:39;27.30;74.70
27413;DHT22;14871;52.702;5.230;2023-06-04T12:56:05;27.40;75.50
27413;DHT22;14871;52.702;5.230;2023-06-04T12:58:31;27.50;75.30
27413;DHT22;14871;52.702;5.230;2023-06-04T13:00:57;27.50;75.30
27413;DHT22;14871;52.702;5.230;2023-06-04T13:03:23;27.60;74.90
27413;DHT22;14871;52.702;5.230;2023-06-04T13:05:48;27.60;74.20
27413;DHT22;14871;52.702;5.230;2023-06-04T13:08:16;27.70;75.20
27413;DHT22;14871;52.702;5.230;2023-06-04T13:10:42;27.70;75.00
27413;DHT22;14871;52.702;5.230;2023-06-04T13:13:08;27.70;74.20
27413;DHT22;14871;52.702;5.230;2023-06-04T13:15:34;27.60;74.30
27413;DHT22;14871;52.702;5.230;2023-06-04T13:18:00;27.70;75.60
27413;DHT22;14871;52.702;5.230;2023-06-04T13:20:25;27.70;75.00
27413;DHT22;14871;52.702;5.230;2023-06-04T13:22:51;27.70;74.40
27413;DHT22;14871;52.702;5.230;2023-06-04T13:25:17;27.70;74.40
27413;DHT22;14871;52.702;5.230;2023-06-04T13:27:44;27.80;73.80
27413;DHT22;14871;52.702;5.230;2023-06-04T13:30:10;27.60;74.50
27413;DHT22;14871;52.702;5.230;2023-06-04T13:32:36;27.40;75.50
27413;DHT22;14871;52.702;5.230;2023-06-04T13:35:02;27.30;75.80
27413;DHT22;14871;52.702;5.230;2023-06-04T13:37:28;27.50;76.40
27413;DHT22;14871;52.702;5.230;2023-06-04T13:39:54;27.40;75.60
27413;DHT22;14871;52.702;5.230;2023-06-04T13:42:19;27.20;75.80
27413;DHT22;14871;52.702;5.230;2023-06-04T13:44:45;27.20;76.00
27413;DHT22;14871;52.702;5.230;2023-06-04T13:47:11;27.20;76.50
27413;DHT22;14871;52.702;5.230;2023-06-04T13:49:36;27.20;76.30
27413;DHT22;14871;52.702;5.230;2023-06-04T13:52:02;27.20;77.30
27413;DHT22;14871;52.702;5.230;2023-06-04T13:54:28;27.10;76.20
27413;DHT22;14871;52.702;5.230;2023-06-04T13:56:53;27.20;76.40
27413;DHT22;14871;52.702;5.230;2023-06-04T13:59:19;27.30;76.30
27413;DHT22;14871;52.702;5.230;2023-06-04T14:01:45;27.40;76.40
27413;DHT22;14871;52.702;5.230;2023-06-04T14:04:10;27.60;76.50
27413;DHT22;14871;52.702;5.230;2023-06-04T14:06:37;27.40;76.40
27413;DHT22;14871;52.702;5.230;2023-06-04T14:09:06;27.60;76.40
27413;DHT22;14871;52.702;5.230;2023-06-04T14:11:32;27.50;75.90
27413;DHT22;14871;52.702;5.230;2023-06-04T14:13:58;27.40;75.80
27413;DHT22;14871;52.702;5.230;2023-06-04T14:16:24;27.40;75.90
27413;DHT22;14871;52.702;5.230;2023-06-04T14:18:50;27.30;75.80
27413;DHT22;14871;52.702;5.230;2023-06-04T14:21:15;27.20;75.20
27413;DHT22;14871;52.702;5.230;2023-06-04T14:23:41;27.20;75.60
27413;DHT22;14871;52.702;5.230;2023-06-04T14:26:07;27.20;76.60
27413;DHT22;14871;52.702;5.230;2023-06-04T14:28:32;27.20;76.00
27413;DHT22;14871;52.702;5.230;2023-06-04T14:30:58;27.10;76.70
27413;DHT22;14871;52.702;5.230;2023-06-04T14:33:24;27.10;76.60
27413;DHT22;14871;52.702;5.230;2023-06-04T14:35:50;26.90;77.00
27413;DHT22;14871;52.702;5.230;2023-06-04T14:38:17;26.80;76.70
27413;DHT22;14871;52.702;5.230;2023-06-04T14:40:43;26.80;76.30
27413;DHT22;14871;52.702;5.230;2023-06-04T14:43:11;26.60;76.70
27413;DHT22;14871;52.702;5.230;2023-06-04T14:45:36;26.60;77.80
27413;DHT22;14871;52.702;5.230;2023-06-04T14:48:04;26.60;76.90
27413;DHT22;14871;52.702;5.230;2023-06-04T14:50:30;26.50;76.80
27413;DHT22;14871;52.702;5.230;2023-06-04T14:52:56;26.50;77.60
27413;DHT22;14871;52.702;5.230;2023-06-04T14:55:22;26.50;77.40
27413;DHT22;14871;52.702;5.230;2023-06-04T14:57:49;26.30;76.70
27413;DHT22;14871;52.702;5.230;2023-06-04T15:00:15;26.20;77.20
27413;DHT22;14871;52.702;5.230;2023-06-04T15:02:41;26.00;78.50
27413;DHT22;14871;52.702;5.230;2023-06-04T15:05:08;26.10;78.40
27413;DHT22;14871;52.702;5.230;2023-06-04T15:07:33;26.10;79.00
27413;DHT22;14871;52.702;5.230;2023-06-04T15:09:59;26.10;78.30
27413;DHT22;14871;52.702;5.230;2023-06-04T15:12:27;26.10;78.10
27413;DHT22;14871;52.702;5.230;2023-06-04T15:14:53;26.00;78.80
27413;DHT22;14871;52.702;5.230;2023-06-04T15:17:19;26.00;79.40
27413;DHT22;14871;52.702;5.230;2023-06-04T15:19:44;25.90;79.20
27413;DHT22;14871;52.702;5.230;2023-06-04T15:22:10;25.90;78.80
27413;DHT22;14871;52.702;5.230;2023-06-04T15:24:36;25.80;79.50
27413;DHT22;14871;52.702;5.230;2023-06-04T15:27:02;25.80;78.90
27413;DHT22;14871;52.702;5.230;2023-06-04T15:29:27;25.50;78.60
27413;DHT22;14871;52.702;5.230;2023-06-04T15:31:53;25.40;79.70
27413;DHT22;14871;52.702;5.230;2023-06-04T15:34:18;25.40;80.10